Time;durP1;ratioP1;P1;durP2;ratioP2;P2;SDS_P1;SDS_P2;PMS_P1;PMS_P2;Temp;Humidity;BMP_temperature;BMP_pressure;BME280_temperature;BME280_humidity;BME280_pressure;Samples;Min_cycle;Max_cycle;Signal;HPM_P1;HPM_P2
2023/09/20 00:01:26;;;;;;;;;;;24.20;99.90;;;;;;5057769;22;20173;-60
2023/09/20 00:03:52;;;;;;;;;;;24.10;99.90;;;;;;5009243;28;20379;-61
2023/09/20 00:06:17;;;;;;;;;;;24.10;99.90;;;;;;5008884;28;19916;-63
2023/09/20 00:08:47;;;;;;;;;;;24.10;99.90;;;;;;5009247;28;19905;-62
2023/09/20 00:11:15;;;;;;;;;;;24.10;99.90;;;;;;4990386;28;19905;-63
2023/09/20 00:13:41;;;;;;;;;;;24.10;99.90;;;;;;4992305;28;19959;-63
2023/09/20 00:16:07;;;;;;;;;;;24.10;99.90;;;;;;5012267;28;19913;-63
2023/09/20 00:18:34;;;;;;;;;;;24.10;99.90;;;;;;5012562;28;19913;-64
2023/09/20 00:21:01;;;;;;;;;;;24.10;99.90;;;;;;5013108;28;19964;-64
2023/09/20 00:23:27;;;;;;;;;;;24.10;99.90;;;;;;5011353;28;19905;-64
2023/09/20 00:25:53;;;;;;;;;;;24.10;99.90;;;;;;5013044;28;19971;-63
2023/09/20 00:28:18;;;;;;;;;;;24.10;99.90;;;;;;4995576;28;20371;-65
2023/09/20 00:30:47;;;;;;;;;;;24.10;99.90;;;;;;5012244;28;20299;-65
2023/09/20 00:33:14;;;;;;;;;;;24.00;99.90;;;;;;5013510;28;20256;-67
2023/09/20 00:35:39;;;;;;;;;;;24.00;99.90;;;;;;5013283;28;19963;-64
2023/09/20 00:38:06;;;;;;;;;;;24.00;99.90;;;;;;5012760;28;19941;-63
2023/09/20 00:40:32;;;;;;;;;;;24.00;99.90;;;;;;5013169;28;20267;-63
2023/09/20 00:42:58;;;;;;;;;;;24.00;99.90;;;;;;5012863;28;20015;-64
2023/09/20 00:45:24;;;;;;;;;;;23.90;99.90;;;;;;5012744;28;19973;-61
2023/09/20 00:47:55;;;;;;;;;;;23.90;99.90;;;;;;5012550;28;19905;-61
2023/09/20 00:50:21;;;;;;;;;;;23.90;99.90;;;;;;5012384;28;19924;-61
2023/09/20 00:52:47;;;;;;;;;;;23.90;99.90;;;;;;5011017;28;20287;-61
2023/09/20 00:55:20;;;;;;;;;;;23.90;99.90;;;;;;5012812;28;19917;-61
2023/09/20 00:57:47;;;;;;;;;;;23.90;99.90;;;;;;5012190;28;19905;-61
2023/09/20 01:00:26;;;;;;;;;;;23.90;99.90;;;;;;5011373;28;19928;-61
2023/09/20 01:02:52;;;;;;;;;;;23.90;99.90;;;;;;4994385;28;20299;-60
2023/09/20 01:05:21;;;;;;;;;;;23.90;99.90;;;;;;5012136;28;19921;-60
2023/09/20 01:07:50;;;;;;;;;;;23.90;99.90;;;;;;5011759;28;20433;-60
2023/09/20 01:10:18;;;;;;;;;;;23.90;99.90;;;;;;5012199;28;19972;-60
2023/09/20 01:12:44;;;;;;;;;;;23.90;99.90;;;;;;5012274;28;19920;-62
2023/09/20 01:15:10;;;;;;;;;;;23.90;99.90;;;;;;5011970;28;20295;-62
2023/09/20 01:17:47;;;;;;;;;;;23.90;99.90;;;;;;5011252;28;19905;-61
2023/09/20 01:20:18;;;;;;;;;;;23.80;99.90;;;;;;5012036;28;20383;-61
2023/09/20 01:22:47;;;;;;;;;;;23.90;99.90;;;;;;5010800;28;19905;-62
2023/09/20 01:25:19;;;;;;;;;;;23.90;99.90;;;;;;5011773;28;19911;-61
2023/09/20 01:27:45;;;;;;;;;;;23.90;99.90;;;;;;5011091;28;19909;-61
2023/09/20 01:30:11;;;;;;;;;;;23.90;99.90;;;;;;5012044;28;19917;-61
2023/09/20 01:32:37;;;;;;;;;;;23.90;99.90;;;;;;5011401;28;19906;-59
2023/09/20 01:35:04;;;;;;;;;;;23.90;99.90;;;;;;5011535;28;19922;-64
2023/09/20 01:37:30;;;;;;;;;;;23.90;99.90;;;;;;5011591;28;20004;-63
2023/09/20 01:39:57;;;;;;;;;;;23.90;99.90;;;;;;5012247;28;20008;-64
2023/09/20 01:42:22;;;;;;;;;;;23.90;99.90;;;;;;5011520;28;19910;-63
2023/09/20 01:44:49;;;;;;;;;;;23.90;99.90;;;;;;5011609;28;19912;-64
2023/09/20 01:47:15;;;;;;;;;;;23.90;99.90;;;;;;5011423;28;20422;-64
2023/09/20 01:49:42;;;;;;;;;;;23.90;99.90;;;;;;5011104;28;20372;-64
2023/09/20 01:52:08;;;;;;;;;;;23.90;99.90;;;;;;5011669;28;19914;-63
2023/09/20 01:54:34;;;;;;;;;;;23.90;99.90;;;;;;5010919;28;19921;-64
2023/09/20 01:57:00;;;;;;;;;;;23.90;99.90;;;;;;5011578;28;19951;-62
2023/09/20 01:59:26;;;;;;;;;;;23.90;99.90;;;;;;4993152;28;19909;-62
2023/09/20 02:01:51;;;;;;;;;;;23.90;99.90;;;;;;5014323;28;20329;-61
2023/09/20 02:04:18;;;;;;;;;;;23.90;99.90;;;;;;5031886;28;19905;-62
2023/09/20 02:06:46;;;;;;;;;;;23.90;99.90;;;;;;5031181;28;19912;-61
2023/09/20 02:09:12;;;;;;;;;;;23.90;99.90;;;;;;5031257;28;19992;-62
2023/09/20 02:11:38;;;;;;;;;;;23.90;99.90;;;;;;5031054;28;20375;-62
2023/09/20 02:14:03;;;;;;;;;;;23.80;99.90;;;;;;5031093;28;19948;-63
2023/09/20 02:16:32;;;;;;;;;;;23.80;99.90;;;;;;5031370;28;19905;-61
2023/09/20 02:18:58;;;;;;;;;;;23.80;99.90;;;;;;5031450;28;19904;-61
2023/09/20 02:21:23;;;;;;;;;;;23.80;99.90;;;;;;5033033;28;19916;-61
2023/09/20 02:23:56;;;;;;;;;;;23.80;99.90;;;;;;5015225;28;20285;-61
2023/09/20 02:26:22;;;;;;;;;;;23.80;99.90;;;;;;5033155;28;19909;-61
2023/09/20 02:28:47;;;;;;;;;;;23.80;99.90;;;;;;5032972;28;20439;-60
2023/09/20 02:31:13;;;;;;;;;;;23.90;99.90;;;;;;5015215;28;19912;-61
2023/09/20 02:33:39;;;;;;;;;;;23.80;99.90;;;;;;5015060;28;19905;-59
2023/09/20 02:36:05;;;;;;;;;;;23.90;99.90;;;;;;5015143;28;19917;-60
2023/09/20 02:38:31;;;;;;;;;;;23.90;99.90;;;;;;5032233;28;20422;-60
2023/09/20 02:40:57;;;;;;;;;;;23.90;99.90;;;;;;5033012;28;19988;-63
2023/09/20 02:43:22;;;;;;;;;;;24.00;99.90;;;;;;5032790;28;19905;-61
2023/09/20 02:45:48;;;;;;;;;;;24.00;99.90;;;;;;5032661;28;19912;-61
2023/09/20 02:48:14;;;;;;;;;;;24.00;99.90;;;;;;5032698;28;19952;-62
2023/09/20 02:50:41;;;;;;;;;;;24.00;99.90;;;;;;5032537;28;20289;-64
2023/09/20 02:53:07;;;;;;;;;;;24.00;99.90;;;;;;5032647;28;20331;-61
2023/09/20 02:55:33;;;;;;;;;;;24.10;99.90;;;;;;5032606;28;19913;-61
2023/09/20 02:57:59;;;;;;;;;;;24.10;99.90;;;;;;5033038;28;19905;-61
2023/09/20 03:00:30;;;;;;;;;;;24.10;99.90;;;;;;5049053;23;19916;-51
2023/09/20 03:02:57;;;;;;;;;;;24.10;99.90;;;;;;5031623;28;19921;-51
2023/09/20 03:05:32;;;;;;;;;;;24.10;99.90;;;;;;5032583;28;19968;-51
2023/09/20 03:08:01;;;;;;;;;;;24.10;99.90;;;;;;5032337;28;19912;-51
2023/09/20 03:10:28;;;;;;;;;;;24.10;99.90;;;;;;5032365;28;19905;-51
2023/09/20 03:12:55;;;;;;;;;;;24.10;99.90;;;;;;5032448;28;19905;-51
2023/09/20 03:15:22;;;;;;;;;;;24.10;99.90;;;;;;5032250;28;19913;-51
2023/09/20 03:17:51;;;;;;;;;;;24.10;99.90;;;;;;5032291;28;19995;-51
2023/09/20 03:20:25;;;;;;;;;;;24.10;99.90;;;;;;5032220;28;19912;-51
2023/09/20 03:22:58;;;;;;;;;;;24.20;99.90;;;;;;5032121;28;19905;-51
2023/09/20 03:25:24;;;;;;;;;;;24.20;99.90;;;;;;5032343;28;19932;-49
2023/09/20 03:27:51;;;;;;;;;;;24.20;99.90;;;;;;5032422;28;20291;-50
2023/09/20 03:30:22;;;;;;;;;;;24.20;99.90;;;;;;5032099;28;19905;-50
2023/09/20 03:32:49;;;;;;;;;;;24.20;99.90;;;;;;5032085;28;19905;-50
2023/09/20 03:35:16;;;;;;;;;;;24.20;99.90;;;;;;5013921;28;19913;-50
2023/09/20 03:37:43;;;;;;;;;;;24.20;99.90;;;;;;5031859;28;19916;-50
2023/09/20 03:40:10;;;;;;;;;;;24.10;99.90;;;;;;5032029;28;19905;-50
2023/09/20 03:42:40;;;;;;;;;;;24.10;99.90;;;;;;5032514;28;20275;-50
2023/09/20 03:45:14;;;;;;;;;;;24.10;99.90;;;;;;5031930;28;19905;-50
2023/09/20 03:47:40;;;;;;;;;;;24.10;99.90;;;;;;5031430;28;19905;-50
2023/09/20 03:50:12;;;;;;;;;;;24.10;99.90;;;;;;5015234;28;19905;-49
2023/09/20 03:52:38;;;;;;;;;;;24.10;99.90;;;;;;5018584;28;20361;-49
2023/09/20 03:55:05;;;;;;;;;;;24.10;99.90;;;;;;5014337;28;19919;-50
2023/09/20 03:57:31;;;;;;;;;;;24.00;99.90;;;;;;5017911;28;20322;-51
2023/09/20 03:59:59;;;;;;;;;;;24.00;99.90;;;;;;5015804;28;19917;-50
2023/09/20 04:02:25;;;;;;;;;;;24.00;99.90;;;;;;5015638;28;19924;-51
2023/09/20 04:04:51;;;;;;;;;;;24.00;99.90;;;;;;5013958;28;19905;-51
2023/09/20 04:07:23;;;;;;;;;;;24.00;99.90;;;;;;5014790;28;20360;-49
2023/09/20 04:09:49;;;;;;;;;;;24.00;99.90;;;;;;5015957;28;19916;-51
2023/09/20 04:12:15;;;;;;;;;;;23.90;99.90;;;;;;5014608;28;20285;-50
2023/09/20 04:14:43;;;;;;;;;;;24.00;99.90;;;;;;5014494;28;19909;-51
2023/09/20 04:17:09;;;;;;;;;;;24.00;99.90;;;;;;5012664;28;20219;-49
2023/09/20 04:19:39;;;;;;;;;;;24.00;99.90;;;;;;5016137;28;20335;-50
2023/09/20 04:22:08;;;;;;;;;;;23.90;99.90;;;;;;5014687;28;19906;-50
2023/09/20 04:24:34;;;;;;;;;;;23.90;99.90;;;;;;5014420;28;19951;-51
2023/09/20 04:27:02;;;;;;;;;;;23.90;99.90;;;;;;5015431;28;19913;-51
2023/09/20 04:29:29;;;;;;;;;;;23.90;99.90;;;;;;5015120;28;19931;-51
2023/09/20 04:31:55;;;;;;;;;;;23.90;99.90;;;;;;5014355;28;20195;-51
2023/09/20 04:34:21;;;;;;;;;;;23.90;99.90;;;;;;5013009;28;19909;-51
2023/09/20 04:36:47;;;;;;;;;;;24.00;99.90;;;;;;5018104;28;19910;-51
2023/09/20 04:39:14;;;;;;;;;;;23.90;99.90;;;;;;5014275;28;19909;-52
2023/09/20 04:41:40;;;;;;;;;;;23.90;99.90;;;;;;5013582;28;19905;-52
2023/09/20 04:44:06;;;;;;;;;;;24.00;99.90;;;;;;5013827;28;19960;-52
2023/09/20 04:46:35;;;;;;;;;;;24.00;99.90;;;;;;5015209;28;19909;-51
2023/09/20 04:49:03;;;;;;;;;;;24.00;99.90;;;;;;5013766;28;19905;-50
2023/09/20 04:51:30;;;;;;;;;;;24.00;99.90;;;;;;5013397;28;20294;-50
2023/09/20 04:53:56;;;;;;;;;;;24.00;99.90;;;;;;5014343;28;20330;-50
2023/09/20 04:56:22;;;;;;;;;;;24.00;99.90;;;;;;5015350;28;20004;-50
2023/09/20 04:58:48;;;;;;;;;;;24.00;99.90;;;;;;5013241;28;19912;-50
2023/09/20 05:01:13;;;;;;;;;;;24.00;99.90;;;;;;5011720;28;19917;-49
2023/09/20 05:03:39;;;;;;;;;;;24.00;99.90;;;;;;5015400;28;19910;-50
2023/09/20 05:06:05;;;;;;;;;;;24.00;99.90;;;;;;5013757;28;19906;-51
2023/09/20 05:08:31;;;;;;;;;;;24.00;99.90;;;;;;5014048;28;19917;-53
2023/09/20 05:10:57;;;;;;;;;;;24.00;99.90;;;;;;5014160;28;20459;-48
2023/09/20 05:13:22;;;;;;;;;;;24.00;99.90;;;;;;5005923;28;19913;-51
2023/09/20 05:15:50;;;;;;;;;;;24.00;99.90;;;;;;5013726;28;19913;-52
2023/09/20 05:18:16;;;;;;;;;;;24.00;99.90;;;;;;5013529;28;19913;-51
2023/09/20 05:20:42;;;;;;;;;;;24.00;99.90;;;;;;5011904;28;19909;-51
2023/09/20 05:23:08;;;;;;;;;;;24.00;99.90;;;;;;5015411;28;19988;-52
2023/09/20 05:25:34;;;;;;;;;;;24.00;99.90;;;;;;5013436;28;20398;-52
2023/09/20 05:28:00;;;;;;;;;;;24.10;99.90;;;;;;5011891;28;19913;-51
2023/09/20 05:30:26;;;;;;;;;;;24.10;99.90;;;;;;5015421;28;20360;-52
2023/09/20 05:32:53;;;;;;;;;;;24.10;99.90;;;;;;5014488;28;20290;-51
2023/09/20 05:35:19;;;;;;;;;;;24.10;99.90;;;;;;5012437;28;19939;-51
2023/09/20 05:37:44;;;;;;;;;;;24.10;99.90;;;;;;5011096;28;19992;-51
2023/09/20 05:40:17;;;;;;;;;;;24.10;99.90;;;;;;5016388;28;19916;-51
2023/09/20 05:42:50;;;;;;;;;;;24.00;99.90;;;;;;5013125;28;19968;-51
2023/09/20 05:45:16;;;;;;;;;;;24.00;99.90;;;;;;5012939;28;20273;-51
2023/09/20 05:47:42;;;;;;;;;;;24.00;99.90;;;;;;5013986;28;19952;-51
2023/09/20 05:50:10;;;;;;;;;;;24.00;99.90;;;;;;5011239;28;20066;-52
2023/09/20 05:52:37;;;;;;;;;;;24.00;99.90;;;;;;5012386;28;19905;-52
2023/09/20 05:55:03;;;;;;;;;;;24.00;99.90;;;;;;5011803;28;20268;-52
2023/09/20 05:57:29;;;;;;;;;;;24.00;99.90;;;;;;5013659;28;19905;-52
2023/09/20 05:59:56;;;;;;;;;;;24.00;99.90;;;;;;5013792;28;19912;-52
2023/09/20 06:02:22;;;;;;;;;;;24.00;99.90;;;;;;5013206;28;19921;-52
2023/09/20 06:04:48;;;;;;;;;;;24.00;99.90;;;;;;5013860;28;19927;-52
2023/09/20 06:07:14;;;;;;;;;;;24.00;99.90;;;;;;4996168;28;19955;-52
2023/09/20 06:09:39;;;;;;;;;;;24.00;99.90;;;;;;5013882;28;19912;-52
2023/09/20 06:12:05;;;;;;;;;;;24.00;99.90;;;;;;5013302;28;19992;-52
2023/09/20 06:14:31;;;;;;;;;;;24.00;99.90;;;;;;5013394;28;19909;-52
2023/09/20 06:16:58;;;;;;;;;;;24.00;99.90;;;;;;5013602;28;20409;-52
2023/09/20 06:19:30;;;;;;;;;;;24.00;99.90;;;;;;5013402;28;19909;-52
2023/09/20 06:21:56;;;;;;;;;;;24.00;99.90;;;;;;5013386;28;19906;-52
2023/09/20 06:24:21;;;;;;;;;;;24.00;99.90;;;;;;5013318;28;19959;-53
2023/09/20 06:26:47;;;;;;;;;;;23.90;99.90;;;;;;4995544;28;19905;-52
2023/09/20 06:29:13;;;;;;;;;;;24.00;99.90;;;;;;5013398;28;19987;-52
2023/09/20 06:31:38;;;;;;;;;;;23.90;99.90;;;;;;5013145;28;19905;-52
2023/09/20 06:34:04;;;;;;;;;;;24.00;99.90;;;;;;5013092;28;19911;-52
2023/09/20 06:36:30;;;;;;;;;;;24.00;99.90;;;;;;5013146;28;19936;-52
2023/09/20 06:38:55;;;;;;;;;;;24.00;99.90;;;;;;5013102;28;20375;-52
2023/09/20 06:41:23;;;;;;;;;;;24.00;99.90;;;;;;4979336;28;19959;-52
2023/09/20 06:43:49;;;;;;;;;;;24.00;99.90;;;;;;5013048;28;19952;-51
2023/09/20 06:46:14;;;;;;;;;;;24.00;99.90;;;;;;5013382;28;19949;-51
2023/09/20 06:48:40;;;;;;;;;;;24.00;99.90;;;;;;5012907;28;20265;-51
2023/09/20 06:51:06;;;;;;;;;;;24.10;99.90;;;;;;5012799;28;19913;-52
2023/09/20 06:53:31;;;;;;;;;;;24.10;99.90;;;;;;4995304;28;19913;-51
2023/09/20 06:55:59;;;;;;;;;;;24.10;99.90;;;;;;5012986;28;20363;-52
2023/09/20 06:58:25;;;;;;;;;;;24.10;99.90;;;;;;5012925;28;19973;-52
2023/09/20 07:00:52;;;;;;;;;;;24.10;99.90;;;;;;5012719;28;19913;-52
2023/09/20 07:03:18;;;;;;;;;;;24.10;99.90;;;;;;5012623;28;19916;-51
2023/09/20 07:05:44;;;;;;;;;;;24.20;99.90;;;;;;5013161;28;20264;-51
2023/09/20 07:08:10;;;;;;;;;;;24.20;99.90;;;;;;5012685;28;19913;-51
2023/09/20 07:10:41;;;;;;;;;;;24.20;99.90;;;;;;5012622;28;19906;-51
2023/09/20 07:13:09;;;;;;;;;;;24.30;99.90;;;;;;4994895;28;19913;-51
2023/09/20 07:15:35;;;;;;;;;;;24.30;99.90;;;;;;4995195;28;19913;-51
2023/09/20 07:18:11;;;;;;;;;;;24.30;99.90;;;;;;5012454;28;20048;-51
2023/09/20 07:20:37;;;;;;;;;;;24.40;99.90;;;;;;5012624;28;19988;-51
2023/09/20 07:23:03;;;;;;;;;;;24.40;99.90;;;;;;5012626;28;19915;-51
2023/09/20 07:25:28;;;;;;;;;;;24.50;99.90;;;;;;5014893;28;19905;-53
2023/09/20 07:28:03;;;;;;;;;;;24.50;99.90;;;;;;5016632;28;20260;-51
2023/09/20 07:30:32;;;;;;;;;;;24.50;99.90;;;;;;5016668;28;19959;-51
2023/09/20 07:32:59;;;;;;;;;;;24.60;99.90;;;;;;5016510;28;19905;-52
2023/09/20 07:35:28;;;;;;;;;;;24.60;99.90;;;;;;5016545;28;19920;-52
2023/09/20 07:37:57;;;;;;;;;;;24.70;99.90;;;;;;5016410;28;19929;-52
2023/09/20 07:40:28;;;;;;;;;;;24.70;99.90;;;;;;5016385;28;19917;-52
2023/09/20 07:43:10;;;;;;;;;;;24.70;99.90;;;;;;5015091;28;19913;-56
2023/09/20 07:45:41;;;;;;;;;;;24.80;99.90;;;;;;5016274;28;20268;-52
2023/09/20 07:48:13;;;;;;;;;;;24.80;99.90;;;;;;5016286;28;19948;-52
2023/09/20 07:50:40;;;;;;;;;;;24.90;99.90;;;;;;5016245;28;19910;-52
2023/09/20 07:53:10;;;;;;;;;;;24.90;99.90;;;;;;5016161;28;20003;-51
2023/09/20 07:55:36;;;;;;;;;;;25.00;99.90;;;;;;4998276;28;19913;-52
2023/09/20 07:58:01;;;;;;;;;;;25.00;99.90;;;;;;4998373;28;19913;-52
2023/09/20 08:00:27;;;;;;;;;;;25.10;99.90;;;;;;5015813;28;19905;-50
2023/09/20 08:02:54;;;;;;;;;;;25.10;99.90;;;;;;5015976;28;20005;-51
2023/09/20 08:05:22;;;;;;;;;;;25.20;99.90;;;;;;4998502;28;19928;-55
2023/09/20 08:07:47;;;;;;;;;;;25.20;99.90;;;;;;5016333;28;19967;-51
2023/09/20 08:10:13;;;;;;;;;;;25.20;99.90;;;;;;5015989;28;19984;-51
2023/09/20 08:12:39;;;;;;;;;;;25.30;99.90;;;;;;5015760;28;20356;-52
2023/09/20 08:15:05;;;;;;;;;;;25.40;99.90;;;;;;5015626;28;19967;-51
2023/09/20 08:20:16;;;;;;;;;;;25.40;99.90;;;;;;5015638;28;19986;-51
2023/09/20 09:01:04;;;;;;;;;;;25.90;99.90;;;;;;5014877;28;20482;-52
2023/09/20 09:03:31;;;;;;;;;;;26.00;99.90;;;;;;5014875;28;19905;-52
2023/09/20 09:06:00;;;;;;;;;;;26.00;99.90;;;;;;5013641;28;20367;-52
2023/09/20 09:08:26;;;;;;;;;;;26.10;99.90;;;;;;5014739;28;20004;-52
2023/09/20 09:10:52;;;;;;;;;;;26.10;99.90;;;;;;5014911;28;19905;-52
2023/09/20 09:13:18;;;;;;;;;;;26.10;99.90;;;;;;4996988;28;19905;-52
2023/09/20 09:15:45;;;;;;;;;;;26.10;99.90;;;;;;5014600;28;19964;-52
2023/09/20 09:18:20;;;;;;;;;;;26.10;99.90;;;;;;5014375;28;19905;-52
2023/09/20 09:20:46;;;;;;;;;;;26.20;99.90;;;;;;5014381;28;20398;-52
2023/09/20 09:23:28;;;;;;;;;;;26.20;99.90;;;;;;5014335;28;20364;-52
2023/09/20 09:25:54;;;;;;;;;;;26.20;99.90;;;;;;5014536;28;19955;-52
2023/09/20 09:28:19;;;;;;;;;;;26.20;99.90;;;;;;5014471;28;19948;-51
2023/09/20 09:30:49;;;;;;;;;;;26.20;99.90;;;;;;5014285;28;19971;-52
2023/09/20 09:33:16;;;;;;;;;;;26.30;99.90;;;;;;5014200;28;19909;-52
2023/09/20 09:35:44;;;;;;;;;;;26.30;99.90;;;;;;5014144;28;19936;-52
2023/09/20 09:38:12;;;;;;;;;;;26.40;99.90;;;;;;5014037;28;19905;-52
2023/09/20 09:40:49;;;;;;;;;;;26.40;99.90;;;;;;5014000;28;19906;-52
2023/09/20 09:43:15;;;;;;;;;;;26.40;99.90;;;;;;5013981;28;19917;-52
2023/09/20 09:45:44;;;;;;;;;;;26.50;99.90;;;;;;5013911;28;20334;-51
2023/09/20 09:48:10;;;;;;;;;;;26.50;99.90;;;;;;5013534;28;19913;-52
2023/09/20 09:50:38;;;;;;;;;;;26.50;99.90;;;;;;5013927;28;19909;-52
2023/09/20 09:53:04;;;;;;;;;;;26.50;99.90;;;;;;5013756;28;19906;-52
2023/09/20 09:55:30;;;;;;;;;;;26.50;99.90;;;;;;5013703;28;19920;-53
2023/09/20 09:57:56;;;;;;;;;;;26.50;99.90;;;;;;5013658;28;19905;-53
2023/09/20 10:00:21;;;;;;;;;;;26.50;99.90;;;;;;5013942;28;20004;-53
2023/09/20 10:02:48;;;;;;;;;;;26.50;99.90;;;;;;5013458;28;19917;-53
2023/09/20 10:05:20;;;;;;;;;;;26.50;99.90;;;;;;5013727;28;19905;-52
2023/09/20 10:07:48;;;;;;;;;;;26.50;99.90;;;;;;5013627;28;19913;-52
2023/09/20 10:10:13;;;;;;;;;;;26.50;99.90;;;;;;5013563;28;19905;-53
2023/09/20 10:12:40;;;;;;;;;;;26.60;99.90;;;;;;5013360;28;19916;-53
2023/09/20 10:15:07;;;;;;;;;;;26.60;99.90;;;;;;5013328;28;19909;-52
2023/09/20 10:17:34;;;;;;;;;;;26.60;99.90;;;;;;5013318;28;19910;-53
2023/09/20 10:20:05;;;;;;;;;;;26.60;99.90;;;;;;5013332;28;19909;-52
2023/09/20 10:22:31;;;;;;;;;;;26.70;99.90;;;;;;5013264;28;19912;-52
2023/09/20 10:25:00;;;;;;;;;;;26.70;99.90;;;;;;5013379;28;19999;-52
2023/09/20 10:27:30;;;;;;;;;;;26.70;99.90;;;;;;5013393;28;20002;-52
2023/09/20 10:29:58;;;;;;;;;;;26.80;99.90;;;;;;5013551;28;19909;-53
2023/09/20 10:32:28;;;;;;;;;;;26.80;99.90;;;;;;5013592;28;19906;-51
2023/09/20 10:35:12;;;;;;;;;;;26.80;99.90;;;;;;5013402;28;20268;-51
2023/09/20 10:37:37;;;;;;;;;;;26.80;99.90;;;;;;5012999;28;19913;-50
2023/09/20 10:40:04;;;;;;;;;;;26.70;99.90;;;;;;5013035;28;19905;-51
2023/09/20 10:42:29;;;;;;;;;;;26.70;99.90;;;;;;5012823;28;19910;-51
2023/09/20 10:45:00;;;;;;;;;;;26.80;99.90;;;;;;5012936;28;19905;-51
2023/09/20 10:47:25;;;;;;;;;;;26.80;99.90;;;;;;5013203;28;19997;-51
2023/09/20 10:49:52;;;;;;;;;;;26.80;99.90;;;;;;5012804;28;19945;-50
2023/09/20 10:52:33;;;;;;;;;;;26.80;99.90;;;;;;5012883;28;19906;-51
2023/09/20 10:55:28;;;;;;;;;;;26.90;99.90;;;;;;5012781;28;19916;-50
2023/09/20 10:57:56;;;;;;;;;;;26.90;99.90;;;;;;5004862;28;19948;-50
2023/09/20 11:00:30;;;;;;;;;;;26.80;99.90;;;;;;5014552;28;19971;-51
2023/09/20 11:02:56;;;;;;;;;;;26.80;99.90;;;;;;5023599;28;19924;-52
2023/09/20 11:05:23;;;;;;;;;;;26.80;99.90;;;;;;5018964;28;20303;-51
2023/09/20 11:07:53;;;;;;;;;;;26.80;99.90;;;;;;5015266;28;20351;-51
2023/09/20 11:10:19;;;;;;;;;;;26.70;99.90;;;;;;5022203;28;19909;-51
2023/09/20 11:12:45;;;;;;;;;;;26.70;99.90;;;;;;5031050;28;19904;-51
2023/09/20 11:15:10;;;;;;;;;;;26.70;99.90;;;;;;5032189;28;20007;-51
2023/09/20 11:17:36;;;;;;;;;;;26.70;99.90;;;;;;5021505;28;20112;-49
2023/09/20 11:20:04;;;;;;;;;;;26.80;99.90;;;;;;5029668;28;19905;-49
2023/09/20 11:22:33;;;;;;;;;;;26.80;99.90;;;;;;5029834;28;19912;-50
2023/09/20 11:25:01;;;;;;;;;;;26.90;99.90;;;;;;5029778;28;20080;-52
2023/09/20 11:27:27;;;;;;;;;;;26.90;99.90;;;;;;5029586;28;19912;-50
2023/09/20 11:29:53;;;;;;;;;;;26.90;99.90;;;;;;5027496;28;19909;-50
2023/09/20 11:32:22;;;;;;;;;;;26.90;99.90;;;;;;5029665;28;19912;-50
2023/09/20 11:34:49;;;;;;;;;;;26.90;99.90;;;;;;5029230;28;20404;-54
2023/09/20 11:37:15;;;;;;;;;;;27.00;99.90;;;;;;5029543;28;19909;-50
2023/09/20 11:39:44;;;;;;;;;;;27.10;99.90;;;;;;5029611;28;19905;-50
2023/09/20 11:42:10;;;;;;;;;;;27.10;99.90;;;;;;5027032;28;19967;-49
2023/09/20 11:44:36;;;;;;;;;;;27.10;99.90;;;;;;5029497;28;19920;-49
2023/09/20 11:47:03;;;;;;;;;;;27.20;99.90;;;;;;5029148;28;19905;-49
2023/09/20 11:49:29;;;;;;;;;;;27.30;99.90;;;;;;5027263;28;20422;-49
2023/09/20 11:51:57;;;;;;;;;;;27.30;99.90;;;;;;5029498;28;19905;-50
2023/09/20 11:54:29;;;;;;;;;;;27.30;99.90;;;;;;5029193;28;19972;-49
2023/09/20 11:56:57;;;;;;;;;;;27.40;99.90;;;;;;5029439;28;19913;-49
2023/09/20 11:59:23;;;;;;;;;;;27.40;99.90;;;;;;5024394;28;19967;-49
2023/09/20 12:01:49;;;;;;;;;;;27.30;99.90;;;;;;5023910;28;19917;-49
2023/09/20 12:04:16;;;;;;;;;;;27.40;99.90;;;;;;5025438;28;20334;-49
2023/09/20 12:06:41;;;;;;;;;;;27.30;99.90;;;;;;5023986;28;19904;-49
2023/09/20 12:09:09;;;;;;;;;;;27.30;99.90;;;;;;5029247;28;20027;-49
2023/09/20 12:11:35;;;;;;;;;;;27.40;99.90;;;;;;5025712;28;19912;-48
2023/09/20 12:14:01;;;;;;;;;;;27.40;99.90;;;;;;5030513;28;20016;-49
2023/09/20 12:16:27;;;;;;;;;;;27.30;99.90;;;;;;5030511;28;20465;-49
2023/09/20 12:18:55;;;;;;;;;;;27.30;99.90;;;;;;5014821;28;19917;-49
2023/09/20 12:21:21;;;;;;;;;;;27.40;99.90;;;;;;5033074;28;19913;-49
2023/09/20 12:23:47;;;;;;;;;;;27.30;99.90;;;;;;5031590;28;19932;-49
2023/09/20 12:26:13;;;;;;;;;;;27.40;99.90;;;;;;5032721;28;20351;-49
2023/09/20 12:28:39;;;;;;;;;;;27.40;99.90;;;;;;5030340;28;19909;-49
2023/09/20 12:31:05;;;;;;;;;;;27.40;99.90;;;;;;5012850;28;19916;-49
2023/09/20 12:33:31;;;;;;;;;;;27.40;99.90;;;;;;5030796;28;19924;-49
2023/09/20 12:36:00;;;;;;;;;;;27.40;99.90;;;;;;5029608;28;19913;-49
2023/09/20 12:38:29;;;;;;;;;;;27.40;99.90;;;;;;5029460;28;19962;-49
2023/09/20 12:40:56;;;;;;;;;;;27.50;99.90;;;;;;5030559;28;19955;-50
2023/09/20 12:43:22;;;;;;;;;;;27.40;99.90;;;;;;5024466;28;20477;-50
2023/09/20 12:45:47;;;;;;;;;;;27.50;99.90;;;;;;5025124;28;20369;-50
2023/09/20 12:48:14;;;;;;;;;;;27.50;99.90;;;;;;5022950;28;19909;-49
2023/09/20 12:50:41;;;;;;;;;;;27.50;99.90;;;;;;5029205;28;20363;-47
2023/09/20 12:53:10;;;;;;;;;;;27.60;99.90;;;;;;5029620;28;20259;-48
2023/09/20 12:55:37;;;;;;;;;;;27.60;99.90;;;;;;5031847;28;19913;-48
2023/09/20 12:58:03;;;;;;;;;;;27.60;99.90;;;;;;5032521;28;19959;-48
2023/09/20 13:00:29;;;;;;;;;;;27.60;99.90;;;;;;5028071;28;19909;-47
2023/09/20 13:02:57;;;;;;;;;;;27.70;99.90;;;;;;5017377;28;20023;-49
2023/09/20 13:05:23;;;;;;;;;;;27.70;99.90;;;;;;5023696;28;19956;-48
2023/09/20 13:07:48;;;;;;;;;;;27.70;99.90;;;;;;5024326;28;19948;-47
2023/09/20 13:10:14;;;;;;;;;;;27.70;99.90;;;;;;5021417;28;19927;-46
2023/09/20 13:12:41;;;;;;;;;;;27.80;99.90;;;;;;5025372;28;19916;-45
2023/09/20 13:15:14;;;;;;;;;;;27.80;99.90;;;;;;5023679;28;19920;-45
2023/09/20 13:17:43;;;;;;;;;;;27.80;99.90;;;;;;5024485;28;19987;-45
2023/09/20 13:20:10;;;;;;;;;;;27.90;99.90;;;;;;5028733;28;19905;-46
2023/09/20 13:22:36;;;;;;;;;;;27.90;99.90;;;;;;5028029;28;20433;-46
2023/09/20 13:25:02;;;;;;;;;;;27.90;99.90;;;;;;5029451;28;21274;-47
2023/09/20 13:27:27;;;;;;;;;;;27.80;99.90;;;;;;5012435;28;19996;-47
2023/09/20 13:29:54;;;;;;;;;;;27.90;99.90;;;;;;5029829;28;20366;-46
2023/09/20 13:32:20;;;;;;;;;;;27.90;99.90;;;;;;5012621;28;20317;-46
2023/09/20 13:34:46;;;;;;;;;;;27.90;99.90;;;;;;5027865;28;20028;-47
2023/09/20 13:37:12;;;;;;;;;;;27.90;99.90;;;;;;5014203;28;20000;-46
2023/09/20 13:39:42;;;;;;;;;;;27.90;99.90;;;;;;5031263;28;20363;-46
2023/09/20 13:42:09;;;;;;;;;;;28.00;99.90;;;;;;5014183;28;20384;-46
2023/09/20 13:44:36;;;;;;;;;;;28.00;99.90;;;;;;5028737;28;19996;-47
2023/09/20 13:47:06;;;;;;;;;;;27.90;99.90;;;;;;5030150;28;19916;-47
2023/09/20 13:49:34;;;;;;;;;;;27.90;99.90;;;;;;5011230;28;20022;-47
2023/09/20 13:52:00;;;;;;;;;;;27.90;99.90;;;;;;5027495;28;19913;-47
2023/09/20 13:54:25;;;;;;;;;;;27.90;99.90;;;;;;5031256;28;19905;-47
2023/09/20 13:56:51;;;;;;;;;;;28.00;99.90;;;;;;5031169;28;19909;-47
2023/09/20 13:59:19;;;;;;;;;;;28.00;99.90;;;;;;5028590;28;19912;-46
2023/09/20 14:01:45;;;;;;;;;;;28.00;99.90;;;;;;5028427;28;19978;-47
2023/09/20 14:04:11;;;;;;;;;;;28.00;99.90;;;;;;5028145;28;19915;-47
2023/09/20 14:06:37;;;;;;;;;;;28.00;99.90;;;;;;5026809;28;20421;-47
2023/09/20 14:09:03;;;;;;;;;;;28.00;99.90;;;;;;5030745;28;20409;-46
2023/09/20 14:11:28;;;;;;;;;;;28.00;99.90;;;;;;5030290;28;19915;-47
2023/09/20 14:13:54;;;;;;;;;;;28.00;99.90;;;;;;5027552;28;20715;-48
2023/09/20 14:16:20;;;;;;;;;;;28.00;99.90;;;;;;5027348;28;19913;-48
2023/09/20 14:18:45;;;;;;;;;;;28.00;99.90;;;;;;5008990;28;19950;-49
2023/09/20 14:21:11;;;;;;;;;;;28.00;99.90;;;;;;5030210;28;19928;-48
2023/09/20 14:23:37;;;;;;;;;;;28.00;99.90;;;;;;5030534;28;20390;-48
2023/09/20 14:26:08;;;;;;;;;;;28.10;99.90;;;;;;5028290;28;20294;-48
2023/09/20 14:28:34;;;;;;;;;;;28.10;99.90;;;;;;5024731;28;19916;-48
2023/09/20 14:30:59;;;;;;;;;;;28.10;99.90;;;;;;5027472;28;19909;-48
2023/09/20 14:33:25;;;;;;;;;;;28.10;99.90;;;;;;5028680;28;19913;-48
2023/09/20 14:35:56;;;;;;;;;;;28.10;99.90;;;;;;5024376;28;19997;-48
2023/09/20 14:38:24;;;;;;;;;;;28.10;99.90;;;;;;5029359;28;19905;-48
2023/09/20 14:40:51;;;;;;;;;;;28.10;99.90;;;;;;5029556;28;20412;-48
2023/09/20 14:43:17;;;;;;;;;;;28.10;99.90;;;;;;5026702;28;19905;-49
2023/09/20 14:45:43;;;;;;;;;;;28.00;99.90;;;;;;5027966;28;20070;-48
2023/09/20 14:48:10;;;;;;;;;;;28.10;99.90;;;;;;5025681;28;20007;-49
2023/09/20 14:50:37;;;;;;;;;;;28.00;99.90;;;;;;5022785;28;19909;-48
2023/09/20 14:53:04;;;;;;;;;;;28.00;99.90;;;;;;5021985;28;20403;-48
2023/09/20 14:55:30;;;;;;;;;;;28.10;99.90;;;;;;5027934;28;19955;-48
2023/09/20 14:57:56;;;;;;;;;;;28.00;99.90;;;;;;5030105;28;19998;-48